Time;durP1;ratioP1;P1;durP2;ratioP2;P2;SDS_P1;SDS_P2;PMS_P1;PMS_P2;Temp;Humidity;BMP_temperature;BMP_pressure;BME280_temperature;BME280_humidity;BME280_pressure;Samples;Min_cycle;Max_cycle;Signal;HPM_P1;HPM_P2
2021/07/09 00:03:10;;;;;;;;;;;;;;;;;;;;;
2021/07/09 00:05:38;;;;;;;5.00;4.03;;;;;;;27.50;52.42;101478.80;128397;1087;64153;-83
2021/07/09 00:08:26;;;;;;;5.10;4.15;;;;;;;27.51;52.30;101483.20;128341;1087;64134;-83
2021/07/09 00:11:06;;;;;;;4.60;4.00;;;;;;;27.51;52.39;101482.35;128363;1087;64140;-83
2021/07/09 00:13:41;;;;;;;5.30;4.07;;;;;;;27.50;52.42;101484.22;128370;1087;64134;-83
2021/07/09 00:16:30;;;;;;;;;;;;;;;;;;;;;
2021/07/09 00:19:07;;;;;;;5.40;4.03;;;;;;;27.51;52.44;101474.22;128384;1087;63961;-84
2021/07/09 00:21:53;;;;;;;5.47;4.30;;;;;;;27.49;52.62;101471.64;128363;1086;64141;-83
2021/07/09 00:24:22;;;;;;;4.90;4.13;;;;;;;27.49;52.51;101468.94;128384;1087;64144;-83
2021/07/09 00:27:05;;;;;;;4.88;3.90;;;;;;;27.50;52.50;101467.95;128419;1086;64143;-84
2021/07/09 00:29:33;;;;;;;4.80;3.97;;;;;;;27.49;52.66;101465.34;128351;1086;63957;-84
2021/07/09 00:32:01;;;;;;;4.87;4.00;;;;;;;27.49;52.65;101457.20;128364;1086;64114;-84
2021/07/09 00:34:48;;;;;;;4.70;3.90;;;;;;;27.49;52.63;101452.66;128364;1087;64193;-84
2021/07/09 00:37:16;;;;;;;;;;;;;;;27.49;52.42;101465.34;128442;1087;64189;-84
2021/07/09 00:40:07;;;;;;;5.10;4.20;;;;;;;27.48;52.48;101463.66;128380;1087;64121;-84
2021/07/09 00:42:53;;;;;;;5.50;4.23;;;;;;;27.47;52.51;101451.92;128362;1085;64099;-83
2021/07/09 00:45:19;;;;;;;5.70;4.30;;;;;;;27.47;52.57;101451.92;128381;1087;64111;-83
2021/07/09 00:48:09;;;;;;;5.30;4.30;;;;;;;27.48;52.56;101447.38;128063;1087;64206;-84
2021/07/09 00:50:53;;;;;;;;;;;;;;;27.46;52.46;101442.10;127942;1090;64227;-84
2021/07/09 00:53:21;;;;;;;4.23;3.73;;;;;;;27.45;52.63;101442.21;127898;1088;64187;-84
2021/07/09 00:55:51;;;;;;;5.40;4.30;;;;;;;27.47;52.39;101440.23;127902;1090;64149;-84
2021/07/09 00:58:32;;;;;;;6.13;3.90;;;;;;;27.45;52.57;101440.38;127766;1088;64323;-84
2021/07/09 01:01:07;;;;;;;5.17;4.27;;;;;;;27.45;52.73;101440.38;127938;1090;64844;-83
2021/07/09 01:03:56;;;;;;;4.77;3.97;;;;;;;27.46;52.72;101439.39;127898;1090;64111;-84
2021/07/09 01:06:25;;;;;;;;;;;;;;;27.43;52.45;101432.39;127951;1088;64401;-83
2021/07/09 01:08:54;;;;;;;5.43;4.20;;;;;;;27.44;52.76;101435.94;127885;1090;64287;-83
2021/07/09 01:11:45;;;;;;;5.63;4.20;;;;;;;27.45;52.68;101434.95;127791;1090;64078;-84
2021/07/09 01:14:31;;;;;;;5.10;3.93;;;;;;;27.45;52.84;101436.79;127896;1090;64137;-84
2021/07/09 01:16:57;;;;;;;5.40;4.13;;;;;;;27.44;52.73;101435.94;127926;1090;62435;-84
2021/07/09 01:19:27;;;;;;;5.50;4.37;;;;;;;27.45;52.86;101439.50;127919;1090;64124;-83
2021/07/09 01:21:56;;;;;;;5.33;4.17;;;;;;;27.46;52.69;101441.22;127759;1090;64249;-84
2021/07/09 01:24:42;;;;;;;5.50;4.13;;;;;;;27.45;52.70;101439.50;127887;1089;64654;-84
2021/07/09 01:27:17;;;;;;;4.40;3.87;;;;;;;27.46;52.93;101438.52;127886;1089;64287;-84
2021/07/09 01:29:47;;;;;;;5.10;4.20;;;;;;;27.45;52.65;101436.79;128378;1087;64158;-84
2021/07/09 01:32:26;;;;;;;4.80;4.23;;;;;;;27.47;52.63;101437.53;128370;1086;64179;-83
2021/07/09 01:34:58;;;;;;;5.13;4.20;;;;;;;27.44;52.85;101430.52;128365;1087;64096;-84
2021/07/09 01:37:45;;;;;;;5.70;4.63;;;;;;;27.45;52.55;101428.66;128405;1087;64139;-83
2021/07/09 01:40:20;;;;;;;5.63;4.30;;;;;;;27.47;52.80;101440.23;128392;1087;64161;-84
2021/07/09 01:43:06;;;;;;;4.97;4.10;;;;;;;27.44;52.85;101430.52;128380;1087;64607;-83
2021/07/09 01:45:39;;;;;;;5.50;4.10;;;;;;;27.45;52.63;101424.11;128368;1087;64145;-85
2021/07/09 01:48:12;;;;;;;6.17;4.43;;;;;;;27.46;52.88;101431.26;128340;1086;64236;-84
2021/07/09 01:50:59;;;;;;;5.03;4.23;;;;;;;27.45;52.78;101431.37;128409;1085;64284;-84
2021/07/09 01:53:28;;;;;;;5.27;4.30;;;;;;;27.45;52.79;101428.66;128387;1087;64221;-84
2021/07/09 01:56:05;;;;;;;5.17;4.20;;;;;;;27.45;53.00;101428.66;128356;1085;64644;-84
2021/07/09 01:58:32;;;;;;;4.73;4.20;;;;;;;27.45;52.89;101434.95;128352;1087;64166;-83
2021/07/09 02:01:06;;;;;;;4.80;4.17;;;;;;;27.46;53.03;101439.39;128383;1086;64137;-83
2021/07/09 02:03:44;;;;;;;4.87;4.10;;;;;;;27.44;52.76;101438.66;128341;1086;64037;-84
2021/07/09 02:06:11;;;;;;;4.77;4.27;;;;;;;27.44;52.84;101433.23;128355;1087;64151;-83
2021/07/09 02:08:47;;;;;;;6.10;4.40;;;;;;;27.44;53.06;101433.23;128376;1085;64102;-85
2021/07/09 02:11:24;;;;;;;5.27;4.10;;;;;;;27.45;52.98;101437.67;128348;1087;64095;-83
2021/07/09 02:13:55;;;;;;;6.23;4.07;;;;;;;27.45;53.03;101434.08;128358;1087;64128;-84
2021/07/09 02:16:30;;;;;;;5.70;4.17;;;;;;;27.44;53.01;101433.23;128381;1087;63508;-85
2021/07/09 02:19:07;;;;;;;5.53;4.23;;;;;;;27.45;52.88;101436.79;128398;1086;64300;-84
2021/07/09 02:21:42;;;;;;;5.67;4.40;;;;;;;27.45;52.93;101428.66;128417;1087;64237;-84
2021/07/09 02:24:09;;;;;;;4.67;3.90;;;;;;;27.44;52.90;101430.52;128386;1086;64103;-84
2021/07/09 02:26:55;;;;;;;5.40;4.03;;;;;;;27.43;53.09;101424.25;128355;1087;64138;-84
2021/07/09 02:29:40;;;;;;;6.67;4.00;;;;;;;27.44;52.93;101430.52;128387;1086;64263;-84
2021/07/09 02:32:29;;;;;;;5.00;4.33;;;;;;;27.44;52.95;101422.39;128353;1087;64147;-84
2021/07/09 02:34:55;;;;;;;5.45;4.30;;;;;;;27.43;52.99;101426.09;128353;1087;64137;-83
2021/07/09 02:37:21;;;;;;;5.60;4.10;;;;;;;27.43;53.26;101431.51;128388;1087;64282;-82
2021/07/09 02:39:59;;;;;;;5.50;4.27;;;;;;;27.44;52.95;101430.52;128382;1087;64177;-83
2021/07/09 02:42:26;;;;;;;5.58;4.53;;;;;;;27.42;53.05;101427.95;128391;1087;64281;-83
2021/07/09 02:45:01;;;;;;;5.07;4.30;;;;;;;27.43;53.16;101428.80;128336;1087;64105;-83
2021/07/09 02:47:37;;;;;;;6.07;4.90;;;;;;;27.43;53.11;101432.39;128370;1086;64141;-84
2021/07/09 02:50:06;;;;;;;5.07;4.30;;;;;;;27.42;53.16;101432.50;128361;1087;64137;-83
2021/07/09 02:52:33;;;;;;;6.67;4.30;;;;;;;27.43;53.24;101439.64;128375;1087;64440;-83
2021/07/09 02:55:01;;;;;;;4.80;4.30;;;;;;;27.43;52.96;101431.51;128403;1087;64108;-84
2021/07/09 02:57:53;;;;;;;4.95;4.23;;;;;;;27.42;53.12;101441.50;128356;1087;64281;-83
2021/07/09 03:00:30;;;;;;;5.30;4.40;;;;;;;27.43;53.01;101439.64;128388;1087;64295;-83
2021/07/09 03:03:08;;;;;;;5.10;4.17;;;;;;;27.43;53.25;101440.52;128371;1087;61732;-83
2021/07/09 03:05:43;;;;;;;5.63;4.63;;;;;;;27.42;53.17;101440.63;128371;1085;64128;-84
2021/07/09 03:08:23;;;;;;;5.33;4.47;;;;;;;27.43;52.95;101445.06;128367;1087;64223;-84
2021/07/09 03:11:19;;;;;;;5.50;4.33;;;;;;;27.42;53.17;101454.19;128370;1087;64156;-84
2021/07/09 03:13:46;;;;;;;6.40;4.40;;;;;;;27.43;52.95;101445.06;128379;1087;64130;-85
2021/07/09 03:16:12;;;;;;;6.40;4.27;;;;;;;27.43;53.05;101447.77;128015;1087;64141;-85
2021/07/09 03:18:38;;;;;;;5.23;4.10;;;;;;;27.43;52.92;101443.23;128383;1087;64109;-84
2021/07/09 03:21:08;;;;;;;5.90;4.27;;;;;;;27.43;53.26;101445.06;128389;1087;64249;-84
2021/07/09 03:23:51;;;;;;;5.23;4.47;;;;;;;27.43;53.22;101447.77;128344;1086;64132;-83
2021/07/09 03:26:46;;;;;;;5.40;4.37;;;;;;;27.44;53.14;101446.78;128383;1087;64102;-83
2021/07/09 03:29:31;;;;;;;5.00;4.20;;;;;;;27.43;53.16;101448.66;127944;1086;64104;-83
2021/07/09 03:31:59;;;;;;;5.10;4.37;;;;;;;27.44;53.04;101444.08;127941;1087;64218;-84
2021/07/09 03:34:26;;;;;;;6.27;4.43;;;;;;;27.44;53.25;101444.08;127934;1087;64149;-84
2021/07/09 03:37:12;;;;;;;5.03;4.13;;;;;;;27.45;52.94;101447.63;127915;1087;64149;-83
2021/07/09 03:39:48;;;;;;;4.97;4.43;;;;;;;27.44;52.99;101438.66;127914;1087;64138;-83
2021/07/09 03:42:19;;;;;;;6.10;4.45;;;;;;;27.45;53.14;101437.67;127920;1087;64144;-84
2021/07/09 03:44:50;;;;;;;5.50;4.70;;;;;;;27.45;53.29;101437.67;127954;1087;64227;-84
2021/07/09 03:47:36;;;;;;;5.33;4.43;;;;;;;27.46;53.09;101436.68;127912;1087;64224;-84
2021/07/09 03:50:12;;;;;;;5.80;4.30;;;;;;;27.46;53.24;101433.09;127909;1087;64137;-84
2021/07/09 03:52:51;;;;;;;5.33;4.50;;;;;;;27.46;52.93;101433.09;127885;1087;64117;-83
2021/07/09 03:55:18;;;;;;;5.40;4.47;;;;;;;27.45;53.11;101436.79;127945;1087;64137;-84
2021/07/09 03:58:00;;;;;;;5.23;4.30;;;;;;;27.45;52.92;101437.67;127903;1087;63910;-83
2021/07/09 04:00:57;;;;;;;5.53;4.27;;;;;;;27.45;53.11;101432.25;127673;1093;64063;-84
2021/07/09 04:03:32;;;;;;;7.27;4.67;;;;;;;27.46;53.39;101438.52;127694;1093;64225;-84
2021/07/09 04:06:02;;;;;;;5.50;4.60;;;;;;;27.45;53.19;101436.79;127730;1093;64493;-83
2021/07/09 04:08:47;;;;;;;5.97;4.67;;;;;;;27.45;53.39;101428.66;127648;1093;64392;-83
2021/07/09 04:11:26;;;;;;;5.20;4.40;;;;;;;27.44;53.03;101435.94;127651;1091;64355;-83
2021/07/09 04:14:00;;;;;;;5.43;4.40;;;;;;;27.45;53.34;101436.79;127646;1092;64445;-84
2021/07/09 04:16:38;;;;;;;6.00;4.60;;;;;;;27.44;53.09;101433.23;127669;1093;64150;-84
2021/07/09 04:19:05;;;;;;;5.63;4.70;;;;;;;27.45;53.06;101434.08;127683;1093;64160;-84
2021/07/09 04:21:47;;;;;;;;;;;;;;;;;;;;;
2021/07/09 04:24:32;;;;;;;5.10;4.30;;;;;;;27.45;52.77;101426.82;127632;1093;64307;-84
2021/07/09 04:27:02;;;;;;;5.30;4.33;;;;;;;27.45;53.16;101424.11;127701;1092;64214;-84
2021/07/09 04:29:31;;;;;;;6.60;4.37;;;;;;;27.47;52.88;101426.68;127680;1093;64323;-84
2021/07/09 04:31:58;;;;;;;5.40;4.33;;;;;;;27.47;52.92;101430.23;127661;1092;64157;-83
2021/07/09 04:34:40;;;;;;;5.43;4.47;;;;;;;27.47;52.89;101424.81;127701;1093;63003;-83
2021/07/09 04:37:09;;;;;;;5.67;4.70;;;;;;;27.48;52.79;101426.53;127703;1093;64085;-84
2021/07/09 04:39:45;;;;;;;6.70;4.85;;;;;;;27.48;52.96;101426.53;127882;1089;63955;-85
2021/07/09 04:42:13;;;;;;;6.20;5.03;;;;;;;27.48;52.79;101426.53;127922;1087;64237;-83
2021/07/09 04:45:06;;;;;;;5.37;4.80;;;;;;;27.50;52.55;101434.53;127893;1087;64170;-84
2021/07/09 04:47:53;;;;;;;8.53;5.00;;;;;;;27.49;52.58;101428.27;127915;1087;64571;-84
2021/07/09 04:50:44;;;;;;;6.80;5.10;;;;;;;27.51;52.62;101433.55;127887;1086;64112;-84
2021/07/09 04:53:42;;;;;;;5.50;4.67;;;;;;;27.51;52.56;101431.67;127897;1087;64368;-84
2021/07/09 04:56:18;;;;;;;6.90;5.27;;;;;;;27.53;52.59;101437.84;127911;1087;64103;-85
2021/07/09 04:59:04;;;;;;;7.00;5.17;;;;;;;27.54;52.74;101435.97;127916;1087;64239;-85
2021/07/09 05:01:31;;;;;;;7.10;5.37;;;;;;;27.55;52.53;101426.84;127777;1090;64232;-86
2021/07/09 05:04:24;;;;;;;7.87;5.30;;;;;;;27.55;52.48;101430.41;127910;1087;64137;-85
2021/07/09 05:07:04;;;;;;;8.00;4.77;;;;;;;27.57;52.37;101433.01;127888;1087;64176;-85
2021/07/09 05:09:33;;;;;;;6.93;5.60;;;;;;;27.57;52.43;101431.14;127858;1087;64306;-85
2021/07/09 05:12:00;;;;;;;7.93;5.23;;;;;;;27.58;52.23;101434.70;127881;1087;64170;-86
2021/07/09 05:14:29;;;;;;;7.87;5.40;;;;;;;27.59;52.21;101434.59;127852;1087;64224;-86
2021/07/09 05:17:04;;;;;;;6.95;5.50;;;;;;;27.60;52.20;101424.59;127906;1087;64291;-85
2021/07/09 05:19:33;;;;;;;7.33;5.80;;;;;;;27.60;52.17;101430.86;127916;1085;64087;-86
2021/07/09 05:22:11;;;;;;;6.00;5.20;;;;;;;27.62;52.16;101425.28;127855;1087;64105;-86
2021/07/09 05:24:38;;;;;;;7.80;6.03;;;;;;;27.63;52.13;101432.44;127909;1090;64144;-86
2021/07/09 05:27:08;;;;;;;9.30;6.10;;;;;;;27.64;51.92;101426.02;127876;1087;64152;-85
2021/07/09 05:29:54;;;;;;;8.73;5.87;;;;;;;27.65;52.33;101429.58;127892;1090;64298;-86
2021/07/09 05:32:23;;;;;;;7.37;5.90;;;;;;;27.65;52.17;101432.29;127894;1087;64320;-85
2021/07/09 05:34:58;;;;;;;9.47;5.70;;;;;;;27.66;52.09;101428.59;127887;1087;64252;-86
2021/07/09 05:37:30;;;;;;;7.63;5.87;;;;;;;27.67;51.78;101417.59;127850;1087;64144;-86
2021/07/09 05:40:07;;;;;;;8.40;6.00;;;;;;;27.69;51.94;101420.17;127929;1087;64314;-86
2021/07/09 05:42:36;;;;;;;7.43;5.73;;;;;;;27.69;51.86;101420.17;127927;1087;64091;-85
2021/07/09 05:45:05;;;;;;;6.73;5.73;;;;;;;27.70;51.85;101422.77;127916;1087;64161;-85
2021/07/09 05:47:36;;;;;;;7.67;6.00;;;;;;;27.70;51.91;101422.77;127899;1087;64106;-85
2021/07/09 05:50:15;;;;;;;9.00;5.80;;;;;;;27.72;51.95;101428.05;127907;1087;64144;-85
2021/07/09 05:52:45;;;;;;;8.60;6.10;;;;;;;27.73;51.69;101421.63;127905;1087;63989;-85
2021/07/09 05:55:12;;;;;;;9.27;7.13;;;;;;;27.73;51.51;101419.77;127912;1087;64273;-85
2021/07/09 05:57:46;;;;;;;11.97;9.00;;;;;;;27.74;51.58;101415.19;127877;1087;64872;-85
2021/07/09 06:00:13;;;;;;;10.30;8.23;;;;;;;27.74;51.48;101416.06;127910;1087;65245;-85
2021/07/09 06:02:39;;;;;;;8.60;7.00;;;;;;;27.74;51.39;101417.91;127881;1087;64212;-85
2021/07/09 06:05:07;;;;;;;11.33;7.10;;;;;;;27.74;51.32;101417.91;127694;1090;64144;-85
2021/07/09 06:07:33;;;;;;;11.35;7.20;;;;;;;27.74;51.56;101417.91;127775;1087;64140;-85
2021/07/09 06:10:00;;;;;;;8.73;7.40;;;;;;;27.73;51.42;101417.05;127869;1087;64144;-85
2021/07/09 06:12:28;;;;;;;;;;;;;;;27.73;51.62;101413.50;127830;1087;64378;-85
2021/07/09 06:14:58;;;;;;;10.23;7.20;;;;;;;27.73;51.42;101416.21;127883;1087;63716;-85
2021/07/09 06:17:24;;;;;;;11.20;7.27;;;;;;;27.74;51.44;101412.47;127848;1087;64175;-85
2021/07/09 06:19:51;;;;;;;9.27;7.00;;;;;;;27.74;51.03;101404.34;127843;1087;64203;-85
2021/07/09 06:22:17;;;;;;;11.53;6.97;;;;;;;27.74;51.23;101410.64;127916;1087;64204;-83
2021/07/09 06:24:44;;;;;;;7.43;6.60;;;;;;;27.75;51.26;101406.06;127837;1087;64492;-84
2021/07/09 06:27:11;;;;;;;10.03;7.20;;;;;;;27.75;51.41;101400.63;127824;1087;64025;-83
2021/07/09 06:29:37;;;;;;;7.67;6.90;;;;;;;27.76;51.32;101407.78;127802;1087;64064;-84
2021/07/09 06:32:04;;;;;;;10.30;7.00;;;;;;;27.76;51.46;101408.63;128059;1085;64147;-83
2021/07/09 06:34:36;;;;;;;10.43;7.47;;;;;;;27.76;51.12;101411.34;128236;1087;64284;-83
2021/07/09 06:37:02;;;;;;;8.53;7.03;;;;;;;27.78;51.06;101413.06;128275;1087;64183;-83
2021/07/09 06:39:29;;;;;;;8.53;6.77;;;;;;;27.78;51.16;101408.48;128241;1085;64504;-84
2021/07/09 06:41:55;;;;;;;10.13;6.90;;;;;;;27.79;50.89;101407.50;128287;1087;64239;-84
2021/07/09 06:44:22;;;;;;;9.60;6.60;;;;;;;27.79;51.01;101410.20;128289;1085;64224;-85
2021/07/09 06:46:49;;;;;;;10.03;6.40;;;;;;;27.79;50.95;101410.20;128238;1087;64129;-84
2021/07/09 06:49:15;;;;;;;9.30;7.10;;;;;;;27.80;50.80;101409.22;128375;1085;64156;-85
2021/07/09 06:51:44;;;;;;;9.00;5.90;;;;;;;27.81;50.87;101401.92;128363;1087;64201;-85
2021/07/09 06:54:10;;;;;;;;;;;;;;;27.80;51.04;101403.79;128322;1087;64218;-84
2021/07/09 06:56:36;;;;;;;10.00;7.83;;;;;;;27.80;50.95;101397.52;128342;1085;64268;-84
2021/07/09 06:59:03;;;;;;;9.37;6.80;;;;;;;27.81;50.69;101399.21;128321;1087;64208;-85
2021/07/09 07:01:29;;;;;;;10.10;6.20;;;;;;;27.80;50.93;101400.23;128347;1087;64368;-84
2021/07/09 07:03:59;;;;;;;7.37;6.30;;;;;;;27.80;50.49;101403.79;128351;1086;64118;-85
2021/07/09 07:06:25;;;;;;;9.73;6.70;;;;;;;27.80;50.78;101397.52;128393;1086;64275;-85
2021/07/09 07:08:52;;;;;;;8.37;6.77;;;;;;;27.80;50.57;101400.23;128409;1087;64240;-85
2021/07/09 07:11:41;;;;;;;8.67;6.53;;;;;;;27.80;50.43;101392.09;128334;1085;62194;-85
2021/07/09 07:14:08;;;;;;;9.80;6.23;;;;;;;27.78;50.55;101400.34;128313;1086;64147;-85
2021/07/09 07:16:35;;;;;;;8.73;6.43;;;;;;;27.78;50.40;101394.92;128212;1087;64007;-85
2021/07/09 07:19:01;;;;;;;8.40;6.60;;;;;;;27.79;50.45;101398.51;128257;1086;63907;-85
2021/07/09 07:21:36;;;;;;;7.10;5.93;;;;;;;27.79;50.34;101401.22;128223;1086;64095;-84
2021/07/09 07:24:03;;;;;;;7.53;5.93;;;;;;;27.80;50.24;101389.38;128210;1087;64747;-84
2021/07/09 07:26:29;;;;;;;7.57;5.93;;;;;;;27.80;50.41;101401.08;128238;1085;64323;-85
2021/07/09 07:28:56;;;;;;;8.47;6.00;;;;;;;27.81;50.22;101391.07;128340;1087;64294;-85
2021/07/09 07:31:31;;;;;;;8.08;5.83;;;;;;;27.82;50.17;101398.22;128350;1087;64134;-85
2021/07/09 07:33:58;;;;;;;7.80;6.00;;;;;;;27.83;50.02;101403.50;128361;1085;64259;-85
2021/07/09 07:36:27;;;;;;;9.20;6.07;;;;;;;27.84;50.14;101398.95;128381;1087;64134;-84
2021/07/09 07:38:54;;;;;;;9.27;5.97;;;;;;;27.83;50.12;101392.66;128341;1087;62767;-85
2021/07/09 07:41:20;;;;;;;10.10;6.30;;;;;;;27.84;50.01;101391.66;128282;1086;64271;-84
2021/07/09 07:43:56;;;;;;;7.43;5.33;;;;;;;27.85;50.10;101396.09;128380;1086;64165;-85
2021/07/09 07:46:23;;;;;;;8.73;5.93;;;;;;;27.84;49.76;101390.81;127976;1087;64291;-85
2021/07/09 07:48:58;;;;;;;9.23;5.90;;;;;;;27.84;49.81;101393.53;128345;1087;64149;-85
2021/07/09 07:51:34;;;;;;;10.33;5.50;;;;;;;27.83;49.92;101389.94;128364;1087;64401;-85
2021/07/09 07:54:03;;;;;;;6.67;5.90;;;;;;;27.83;49.80;101395.36;128322;1085;64099;-85
2021/07/09 07:56:30;;;;;;;9.23;5.47;;;;;;;27.84;49.91;101385.39;128321;1086;64272;-84
2021/07/09 07:58:56;;;;;;;7.27;5.60;;;;;;;27.84;49.81;101397.09;127999;1087;63115;-84
2021/07/09 08:01:33;;;;;;;;;;;;;;;;;;;;;
2021/07/09 08:04:00;;;;;;;9.30;6.10;;;;;;;27.85;49.64;101385.24;128334;1085;64137;-84
2021/07/09 08:06:31;;;;;;;11.33;5.43;;;;;;;27.85;49.76;101387.08;128294;1086;64208;-85
2021/07/09 08:09:03;;;;;;;8.57;5.70;;;;;;;27.85;49.76;101385.24;128317;1086;64235;-84
2021/07/09 08:11:30;;;;;;;8.63;5.80;;;;;;;27.86;49.86;101377.95;128300;1087;64240;-84
2021/07/09 08:13:56;;;;;;;9.03;5.77;;;;;;;27.86;49.17;101378.83;128287;1087;64181;-83
2021/07/09 08:16:26;;;;;;;7.70;6.00;;;;;;;27.86;49.60;101375.23;128315;1087;64163;-84
2021/07/09 08:18:52;;;;;;;7.20;5.90;;;;;;;27.86;49.25;101378.83;128327;1085;64232;-83
2021/07/09 08:21:18;;;;;;;6.80;5.40;;;;;;;27.86;49.35;101372.52;128279;1085;64160;-85
2021/07/09 08:23:45;;;;;;;8.13;5.80;;;;;;;27.85;49.34;101377.11;128294;1085;64141;-84
2021/07/09 08:26:12;;;;;;;10.23;6.07;;;;;;;27.86;49.85;101372.52;128234;1087;64298;-84
2021/07/09 08:28:38;;;;;;;8.90;5.67;;;;;;;27.86;49.40;101373.41;128249;1087;64134;-82
2021/07/09 08:31:06;;;;;;;8.03;5.73;;;;;;;27.86;49.65;101370.69;128292;1087;64179;-84
2021/07/09 08:33:33;;;;;;;8.20;5.97;;;;;;;27.85;49.39;101363.54;128255;1086;64291;-84
2021/07/09 08:35:59;;;;;;;8.60;5.93;;;;;;;27.86;49.38;101367.97;128239;1087;64134;-84
2021/07/09 08:38:26;;;;;;;6.70;5.17;;;;;;;27.87;49.32;101368.81;128288;1085;64335;-84
2021/07/09 08:40:52;;;;;;;7.45;5.80;;;;;;;27.87;49.11;101369.66;128279;1085;64108;-85
2021/07/09 08:43:19;;;;;;;7.70;5.47;;;;;;;27.87;49.38;101358.81;128312;1087;64155;-85
2021/07/09 08:45:45;;;;;;;6.85;5.60;;;;;;;27.87;49.43;101356.09;128310;1087;64205;-86
2021/07/09 08:48:15;;;;;;;8.03;5.90;;;;;;;27.88;49.38;101354.27;128344;1087;64151;-85
2021/07/09 08:50:42;;;;;;;7.40;5.87;;;;;;;27.87;49.23;101347.95;128282;1086;64211;-84
2021/07/09 08:53:08;;;;;;;7.73;5.40;;;;;;;27.87;49.19;101353.38;128335;1087;64131;-85
2021/07/09 08:55:36;;;;;;;8.53;6.00;;;;;;;27.88;49.13;101354.27;128261;1085;64129;-85
2021/07/09 08:58:05;;;;;;;8.93;5.70;;;;;;;27.86;49.12;101351.70;128318;1087;64192;-85
2021/07/09 09:00:52;;;;;;;7.20;5.87;;;;;;;27.87;49.29;101353.38;128337;1087;64099;-85
2021/07/09 09:03:27;;;;;;;7.47;5.67;;;;;;;27.86;49.38;101346.27;127913;1087;64400;-85
2021/07/09 09:06:00;;;;;;;6.57;5.73;;;;;;;27.86;49.25;101342.68;127906;1087;64271;-84
2021/07/09 09:08:32;;;;;;;7.27;6.03;;;;;;;27.86;49.29;101339.97;127929;1087;61700;-85
2021/07/09 09:11:00;;;;;;;8.97;6.70;;;;;;;27.85;49.09;101347.27;127848;1087;64106;-84
2021/07/09 09:13:28;;;;;;;8.13;5.90;;;;;;;27.84;49.10;101342.83;127732;1087;64086;-84
2021/07/09 09:16:05;;;;;;;7.83;6.30;;;;;;;27.84;48.99;101326.55;127819;1087;64192;-84
2021/07/09 09:18:44;;;;;;;7.95;6.05;;;;;;;27.85;49.35;101330.98;127807;1087;64316;-84
2021/07/09 09:21:12;;;;;;;6.87;5.90;;;;;;;27.85;49.00;101333.70;127792;1087;64218;-83
2021/07/09 09:23:53;;;;;;;7.28;6.10;;;;;;;27.85;49.07;101336.41;127795;1085;63965;-84
2021/07/09 09:26:39;;;;;;;7.13;5.47;;;;;;;27.84;49.19;101340.11;128485;1087;64300;-83
2021/07/09 09:29:06;;;;;;;9.03;6.07;;;;;;;27.85;48.83;101343.67;127800;1087;64163;-83
2021/07/09 09:31:36;;;;;;;7.73;6.43;;;;;;;27.85;48.83;101332.82;127807;1087;64119;-85
2021/07/09 09:34:03;;;;;;;8.47;6.27;;;;;;;27.85;48.69;101338.25;127814;1087;64214;-85
2021/07/09 09:36:30;;;;;;;8.50;5.90;;;;;;;27.86;48.81;101332.70;127808;1087;64159;-85
2021/07/09 09:38:59;;;;;;;7.80;5.60;;;;;;;27.85;48.66;101330.98;127879;1087;64380;-85
2021/07/09 09:41:25;;;;;;;12.70;6.10;;;;;;;27.86;48.79;101337.25;128132;1087;63951;-86
2021/07/09 09:44:15;;;;;;;8.10;5.03;;;;;;;27.85;48.71;101330.98;128309;1085;64119;-85
2021/07/09 09:46:42;;;;;;;8.53;5.67;;;;;;;27.87;48.76;101328.13;128306;1085;64260;-85
2021/07/09 09:49:12;;;;;;;7.47;5.90;;;;;;;27.87;48.86;101328.97;128238;1086;64143;-85
2021/07/09 09:51:40;;;;;;;8.33;5.93;;;;;;;27.87;48.73;101326.26;128322;1087;64124;-85
2021/07/09 09:54:08;;;;;;;6.93;5.17;;;;;;;27.87;48.96;101325.41;128258;1087;64095;-86
2021/07/09 09:56:36;;;;;;;9.07;5.83;;;;;;;27.87;48.78;101326.26;128330;1087;64249;-85
2021/07/09 09:59:22;;;;;;;8.33;6.10;;;;;;;27.87;48.92;101326.26;128291;1085;64208;-85
2021/07/09 10:01:52;;;;;;;8.47;5.90;;;;;;;27.87;48.78;101333.55;128292;1087;64594;-84
2021/07/09 10:04:18;;;;;;;8.73;5.70;;;;;;;27.86;48.68;101321.86;128290;1086;65048;-84
2021/07/09 10:06:47;;;;;;;7.33;5.23;;;;;;;27.86;48.73;101323.69;128252;1085;64183;-84
2021/07/09 10:09:14;;;;;;;6.50;5.33;;;;;;;27.85;48.86;101322.84;128270;1086;64166;-84
2021/07/09 10:11:48;;;;;;;7.57;5.50;;;;;;;27.86;48.89;101320.98;128293;1087;64657;-84
2021/07/09 10:14:22;;;;;;;6.37;5.27;;;;;;;27.86;48.46;101318.27;128326;1087;64074;-84
2021/07/09 10:16:55;;;;;;;7.83;5.57;;;;;;;27.84;48.90;101312.98;128310;1087;64165;-84
2021/07/09 10:19:27;;;;;;;7.35;5.65;;;;;;;27.84;48.87;101310.27;128344;1087;64170;-84
2021/07/09 10:21:53;;;;;;;10.07;5.67;;;;;;;27.84;48.59;101309.43;128302;1087;64137;-84
2021/07/09 10:24:31;;;;;;;6.63;5.27;;;;;;;27.84;49.02;101302.13;128272;1085;64132;-86
2021/07/09 10:26:57;;;;;;;9.43;5.90;;;;;;;27.84;48.63;101302.13;128324;1087;64185;-85
2021/07/09 10:29:26;;;;;;;6.83;5.40;;;;;;;27.82;48.99;101290.55;128257;1086;64262;-85
2021/07/09 10:31:55;;;;;;;6.43;5.20;;;;;;;27.82;48.67;101295.98;128332;1087;64130;-85
2021/07/09 10:34:35;;;;;;;7.57;5.30;;;;;;;27.82;48.83;101300.56;128378;1087;64099;-86
2021/07/09 10:37:06;;;;;;;6.77;5.53;;;;;;;27.81;48.75;101296.13;128392;1087;64137;-85
2021/07/09 10:39:40;;;;;;;7.20;5.60;;;;;;;27.80;48.35;101297.15;128400;1087;64250;-85
2021/07/09 10:42:41;;;;;;;;;;;;;;;;;;;;;
2021/07/09 10:45:15;;;;;;;9.27;5.40;;;;;;;27.79;48.35;101290.00;128302;1087;64215;-85
2021/07/09 10:48:09;;;;;;;8.20;5.60;;;;;;;27.78;48.42;101280.98;128296;1086;64179;-84
2021/07/09 10:51:05;;;;;;;8.73;6.10;;;;;;;27.78;48.39;101280.14;127867;1087;63935;-84
2021/07/09 10:53:34;;;;;;;9.03;5.80;;;;;;;27.78;48.55;101278.28;127708;1090;64054;-84
2021/07/09 10:56:08;;;;;;;7.33;5.50;;;;;;;27.79;48.38;101273.73;127885;1089;64131;-84
2021/07/09 10:58:41;;;;;;;7.60;5.87;;;;;;;27.78;48.23;101278.28;127693;1090;62840;-84
2021/07/09 11:01:08;;;;;;;7.67;5.67;;;;;;;27.78;48.31;101267.42;127666;1090;64186;-84
2021/07/09 11:03:45;;;;;;;7.03;6.00;;;;;;;27.78;47.96;101267.42;127674;1090;64291;-85
2021/07/09 11:06:19;;;;;;;8.57;5.77;;;;;;;27.79;47.88;101260.16;127777;1090;64099;-84
2021/07/09 11:08:51;;;;;;;8.93;5.83;;;;;;;27.78;47.93;101255.73;127799;1089;61699;-84
2021/07/09 11:11:29;;;;;;;7.43;6.17;;;;;;;27.79;47.88;101261.01;127941;1089;64469;-85
2021/07/09 11:14:14;;;;;;;7.60;6.23;;;;;;;27.78;47.98;101251.15;127761;1090;64099;-85
2021/07/09 11:16:59;;;;;;;7.88;5.98;;;;;;;27.79;47.92;101252.88;127935;1090;64134;-85
2021/07/09 11:19:50;;;;;;;7.50;6.33;;;;;;;27.79;47.44;101250.16;127771;1090;64149;-84
2021/07/09 11:22:19;;;;;;;8.17;6.10;;;;;;;27.79;47.65;101247.45;127776;1090;64154;-86
2021/07/09 11:24:53;;;;;;;7.60;5.90;;;;;;;27.79;47.34;101238.46;127677;1090;64144;-85
2021/07/09 11:27:25;;;;;;;7.80;6.33;;;;;;;27.79;47.34;101247.45;127753;1087;64252;-86
2021/07/09 11:29:57;;;;;;;8.20;6.40;;;;;;;27.79;47.25;101239.31;128009;1087;64140;-85
2021/07/09 11:32:24;;;;;;;7.20;5.90;;;;;;;27.79;47.49;101236.59;128421;1085;64842;-86
2021/07/09 11:35:13;;;;;;;7.87;6.27;;;;;;;27.79;47.30;101230.33;128370;1086;64114;-85
2021/07/09 11:37:44;;;;;;;9.07;6.10;;;;;;;27.79;47.43;101238.46;128382;1086;64160;-84
2021/07/09 11:40:16;;;;;;;6.50;5.50;;;;;;;27.78;47.46;101225.89;128366;1087;64297;-85
2021/07/09 11:43:00;;;;;;;6.83;5.53;;;;;;;27.78;47.04;101221.31;128398;1086;64259;-85
2021/07/09 11:45:30;;;;;;;8.97;6.03;;;;;;;27.79;47.09;101223.03;128369;1085;64144;-84
2021/07/09 11:48:26;;;;;;;8.93;6.03;;;;;;;27.79;47.04;101222.19;128373;1086;64179;-86
2021/07/09 11:51:05;;;;;;;8.43;6.13;;;;;;;27.78;47.07;101215.89;128377;1087;62061;-86
2021/07/09 11:54:03;;;;;;;7.33;6.10;;;;;;;27.79;47.07;101216.77;128389;1087;64237;-86
2021/07/09 11:56:42;;;;;;;7.10;6.03;;;;;;;27.79;46.88;101208.63;128362;1086;64187;-86